createdAt,value
2018-04-29T00:01:23.676Z,19.80
2018-04-29T00:03:49.676Z,20.00
2018-04-29T00:06:15.647Z,21.50
2018-04-29T00:08:41.624Z,22.80
2018-04-29T00:11:07.579Z,21.97
2018-04-29T00:13:33.648Z,23.93
2018-04-29T00:15:59.676Z,23.13
2018-04-29T00:18:25.634Z,21.43
2018-04-29T00:20:52.355Z,22.67
2018-04-29T00:23:18.312Z,22.07
2018-04-29T00:25:44.298Z,22.77
2018-04-29T00:28:10.298Z,22.03
2018-04-29T00:30:37.003Z,21.50
2018-04-29T00:33:02.991Z,21.70
2018-04-29T00:35:28.983Z,19.67
2018-04-29T00:37:54.940Z,21.30
2018-04-29T00:40:20.960Z,21.17
2018-04-29T00:42:46.964Z,22.90
2018-04-29T00:45:12.959Z,23.37
2018-04-29T00:47:38.911Z,23.30
2018-04-29T00:50:05.646Z,22.93
2018-04-29T00:52:31.619Z,22.93
2018-04-29T00:54:57.625Z,24.57
2018-04-29T00:57:23.626Z,24.27
2018-04-29T00:59:49.615Z,23.73
2018-04-29T01:02:16.305Z,23.90
2018-04-29T01:04:42.308Z,22.10
2018-04-29T01:07:09.017Z,23.57
2018-04-29T01:09:34.970Z,20.90
2018-04-29T01:12:00.964Z,17.70
2018-04-29T01:14:26.906Z,19.50
2018-04-29T01:16:52.890Z,19.47
2018-04-29T01:19:19.581Z,19.57
2018-04-29T01:21:45.547Z,20.23
2018-04-29T01:24:11.528Z,21.37
2018-04-29T01:26:38.275Z,23.47
2018-04-29T01:29:05.000Z,20.20
2018-04-29T01:31:31.021Z,18.70
2018-04-29T01:33:57.036Z,21.23
2018-04-29T01:36:23.026Z,19.13
2018-04-29T01:38:48.979Z,18.67
2018-04-29T01:41:15.712Z,19.43
2018-04-29T01:43:41.663Z,24.63
2018-04-29T01:46:08.401Z,19.60
2018-04-29T01:48:34.387Z,19.60
2018-04-29T01:51:00.398Z,18.47
2018-04-29T01:53:26.391Z,19.40
2018-04-29T01:55:52.344Z,17.43
2018-04-29T01:58:19.175Z,19.63
2018-04-29T02:00:45.223Z,20.90
2018-04-29T02:03:11.192Z,20.47
2018-04-29T02:05:45.033Z,18.80
2018-04-29T02:08:10.993Z,21.47
2018-04-29T02:10:36.988Z,19.83
2018-04-29T02:13:04.221Z,19.63
2018-04-29T02:15:30.983Z,19.97
2018-04-29T02:17:56.944Z,19.73
2018-04-29T02:20:24.679Z,20.13
2018-04-29T02:22:50.641Z,21.07
2018-04-29T02:25:17.567Z,21.60
2018-04-29T02:27:43.515Z,20.50
2018-04-29T02:30:09.503Z,18.83
2018-04-29T02:32:42.572Z,19.20
2018-04-29T02:35:08.523Z,20.00
2018-04-29T02:37:35.264Z,20.83
2018-04-29T02:40:02.005Z,19.70
2018-04-29T02:42:28.015Z,19.10
2018-04-29T02:44:54.039Z,20.37
2018-04-29T02:47:20.011Z,21.40
2018-04-29T02:49:46.008Z,20.93
2018-04-29T02:52:11.960Z,21.67
2018-04-29T02:54:38.000Z,21.20
2018-04-29T02:57:03.982Z,22.60
2018-04-29T02:59:30.773Z,21.80
2018-04-29T03:01:56.745Z,23.50
2018-04-29T03:04:22.731Z,21.50
2018-04-29T03:06:49.701Z,21.17
2018-04-29T03:09:15.673Z,21.23
2018-04-29T03:11:41.680Z,21.90
2018-04-29T03:14:07.663Z,21.83
2018-04-29T03:16:35.135Z,22.90
2018-04-29T03:19:01.105Z,24.57
2018-04-29T03:21:27.111Z,21.87
2018-04-29T03:23:53.827Z,22.50
2018-04-29T03:26:19.832Z,20.90
2018-04-29T03:28:45.835Z,21.90
2018-04-29T03:31:11.807Z,22.60
2018-04-29T03:33:37.827Z,21.33
2018-04-29T03:36:03.846Z,20.90
2018-04-29T03:38:30.614Z,20.93
2018-04-29T03:40:57.346Z,20.83
2018-04-29T03:43:23.336Z,19.37
2018-04-29T03:45:49.288Z,18.90
2018-04-29T03:48:15.272Z,19.50
2018-04-29T03:50:41.303Z,18.53
2018-04-29T03:53:08.003Z,17.90
2018-04-29T03:55:34.033Z,17.87
2018-04-29T03:58:12.399Z,16.67
2018-04-29T04:00:50.888Z,17.70
2018-04-29T04:03:29.326Z,16.27
2018-04-29T04:05:56.113Z,18.27
2018-04-29T04:08:22.085Z,16.07
2018-04-29T04:10:48.065Z,15.77
2018-04-29T04:13:14.050Z,15.17
2018-04-29T04:15:40.752Z,16.27
2018-04-29T04:18:06.783Z,14.20
2018-04-29T04:20:32.767Z,15.50
2018-04-29T04:22:59.524Z,16.20
2018-04-29T04:25:26.219Z,15.83
2018-04-29T04:27:52.223Z,15.10
2018-04-29T04:30:18.942Z,14.97
2018-04-29T04:32:44.939Z,16.90
2018-04-29T04:35:10.944Z,17.43
2018-04-29T04:37:37.669Z,17.03
2018-04-29T04:40:03.696Z,17.03
2018-04-29T04:42:29.689Z,16.83
2018-04-29T04:44:55.724Z,19.40
2018-04-29T04:47:21.689Z,18.13
2018-04-29T04:49:47.728Z,18.23
2018-04-29T04:52:13.700Z,16.27
2018-04-29T04:54:39.661Z,16.07
2018-04-29T04:57:05.651Z,15.20
2018-04-29T04:59:31.653Z,15.87
2018-04-29T05:01:57.660Z,16.00
2018-04-29T05:04:23.669Z,14.30
2018-04-29T05:06:49.647Z,13.50
2018-04-29T05:09:15.644Z,14.43
2018-04-29T05:11:41.648Z,13.50
2018-04-29T05:14:08.356Z,15.13
2018-04-29T05:16:34.375Z,13.97
2018-04-29T05:19:00.392Z,15.20
2018-04-29T05:21:26.384Z,16.40
2018-04-29T05:23:52.389Z,15.70
2018-04-29T05:26:33.328Z,15.10
2018-04-29T05:29:00.069Z,13.43
2018-04-29T05:31:26.064Z,16.20
2018-04-29T05:33:52.163Z,14.50
2018-04-29T05:36:18.153Z,15.97
2018-04-29T05:38:44.116Z,15.00
2018-04-29T05:41:10.154Z,15.53
2018-04-29T05:43:36.118Z,16.40
2018-04-29T05:46:02.868Z,15.23
2018-04-29T05:48:29.620Z,16.63
2018-04-29T05:50:56.365Z,14.70
2018-04-29T05:53:23.105Z,15.50
2018-04-29T05:55:49.119Z,17.60
2018-04-29T05:58:15.105Z,14.87
2018-04-29T06:00:41.148Z,18.00
2018-04-29T06:03:07.839Z,17.70
2018-04-29T06:05:33.837Z,17.27
2018-04-29T06:08:00.568Z,16.93
2018-04-29T06:10:26.556Z,16.30
2018-04-29T06:12:53.366Z,18.93
2018-04-29T06:15:19.327Z,17.60
2018-04-29T06:20:35.738Z,22.10
2018-04-29T06:23:01.689Z,19.77
2018-04-29T06:25:28.412Z,21.70
2018-04-29T06:27:54.377Z,20.37
2018-04-29T06:30:21.110Z,21.73
2018-04-29T06:32:47.108Z,22.17
2018-04-29T06:35:13.164Z,20.70
2018-04-29T06:37:39.116Z,20.30
2018-04-29T06:40:05.120Z,18.10
2018-04-29T06:42:31.827Z,16.70
2018-04-29T06:44:58.428Z,15.53
2018-04-29T06:47:24.399Z,16.17
2018-04-29T06:49:50.427Z,14.87
2018-04-29T06:52:16.423Z,17.37
2018-04-29T06:54:42.438Z,16.43
2018-04-29T06:57:08.401Z,13.43
2018-04-29T06:59:35.144Z,14.03
2018-04-29T07:02:01.112Z,12.10
2018-04-29T07:04:27.071Z,12.90
2018-04-29T07:06:53.065Z,11.90
2018-04-29T07:09:19.050Z,12.33
2018-04-29T07:11:45.095Z,11.73
2018-04-29T07:14:11.101Z,11.17
2018-04-29T07:16:37.056Z,11.37
2018-04-29T07:19:04.582Z,10.43
2018-04-29T07:21:30.589Z,10.70
2018-04-29T07:23:56.557Z,11.63
2018-04-29T07:26:22.552Z,12.10
2018-04-29T07:28:48.504Z,11.80
2018-04-29T07:31:14.627Z,11.73
2018-04-29T07:33:40.591Z,12.37
2018-04-29T07:36:06.608Z,11.70
2018-04-29T07:38:32.580Z,12.80
2018-04-29T07:40:58.566Z,11.30
2018-04-29T07:43:25.316Z,11.70
2018-04-29T07:45:52.064Z,11.10
2018-04-29T07:48:18.806Z,10.53
2018-04-29T07:50:45.373Z,11.63
2018-04-29T07:53:12.157Z,10.57
2018-04-29T07:55:38.107Z,10.20
2018-04-29T07:58:04.122Z,9.93
2018-04-29T08:00:30.089Z,11.40
2018-04-29T08:02:56.080Z,10.83
2018-04-29T08:05:22.817Z,10.43
2018-04-29T08:07:48.812Z,10.53
2018-04-29T08:10:14.764Z,10.33
2018-04-29T08:12:40.751Z,11.97
2018-04-29T08:15:07.455Z,10.87
2018-04-29T08:17:33.476Z,10.40
2018-04-29T08:19:59.442Z,10.00
2018-04-29T08:22:25.461Z,10.33
2018-04-29T08:24:51.434Z,10.17
2018-04-29T08:27:17.407Z,10.40
2018-04-29T08:29:43.450Z,11.67
2018-04-29T08:32:09.404Z,11.07
2018-04-29T08:34:35.400Z,11.10
2018-04-29T08:37:02.117Z,11.37
2018-04-29T08:39:28.107Z,11.60
2018-04-29T08:41:54.069Z,12.47
2018-04-29T08:44:20.095Z,11.23
2018-04-29T08:46:46.056Z,11.03
2018-04-29T08:49:12.044Z,11.87
2018-04-29T08:51:38.756Z,12.23
2018-04-29T08:54:04.760Z,11.47
2018-04-29T08:56:30.716Z,11.10
2018-04-29T08:58:56.704Z,11.57
2018-04-29T09:01:23.407Z,11.20
2018-04-29T09:03:49.473Z,12.57
2018-04-29T09:06:15.393Z,12.70
2018-04-29T09:08:41.367Z,13.60
2018-04-29T09:11:08.088Z,12.43
2018-04-29T09:13:34.048Z,11.33
2018-04-29T09:16:00.052Z,12.60
2018-04-29T09:18:26.073Z,10.80
2018-04-29T09:20:52.044Z,10.27
2018-04-29T09:23:18.031Z,10.40
2018-04-29T09:25:44.029Z,11.13
2018-04-29T09:28:09.980Z,9.10
2018-04-29T09:30:35.976Z,9.73
2018-04-29T09:33:01.952Z,9.10
2018-04-29T09:35:27.924Z,9.77
2018-04-29T09:37:54.672Z,10.43
2018-04-29T09:40:20.640Z,8.33
2018-04-29T09:42:46.715Z,8.50
2018-04-29T09:45:20.343Z,8.50
2018-04-29T09:47:46.343Z,6.93
2018-04-29T09:50:12.350Z,7.77
2018-04-29T09:52:39.108Z,7.27
2018-04-29T09:55:05.069Z,7.23
2018-04-29T09:57:31.063Z,6.77
2018-04-29T09:59:57.775Z,6.40
2018-04-29T10:02:23.798Z,7.17
2018-04-29T10:04:49.760Z,6.90
2018-04-29T10:07:15.751Z,6.60
2018-04-29T10:09:41.720Z,6.73
2018-04-29T10:12:07.782Z,6.93
2018-04-29T10:14:33.809Z,6.70
2018-04-29T10:16:59.805Z,5.73
2018-04-29T10:19:25.807Z,5.83
2018-04-29T10:21:52.516Z,6.37
2018-04-29T10:24:18.501Z,5.30
2018-04-29T10:26:45.239Z,5.50
2018-04-29T10:29:11.220Z,6.63
2018-04-29T10:31:37.243Z,5.70
2018-04-29T10:34:03.995Z,4.93
2018-04-29T10:36:30.774Z,5.23
2018-04-29T10:38:56.756Z,5.20
2018-04-29T10:41:23.760Z,6.70
2018-04-29T10:43:50.496Z,5.80
2018-04-29T10:46:17.239Z,6.33
2018-04-29T10:48:43.984Z,5.77
2018-04-29T10:51:09.946Z,6.67
2018-04-29T10:53:35.935Z,5.80
2018-04-29T10:56:01.981Z,6.60
2018-04-29T10:58:27.969Z,6.20
2018-04-29T11:00:54.672Z,6.30
2018-04-29T11:03:20.668Z,6.50
2018-04-29T11:05:47.375Z,5.83
2018-04-29T11:08:14.129Z,6.30
2018-04-29T11:10:40.116Z,5.70
2018-04-29T11:13:06.070Z,5.80
2018-04-29T11:15:32.104Z,6.37
2018-04-29T11:17:58.109Z,5.43
2018-04-29T11:20:24.096Z,6.43
2018-04-29T11:22:50.670Z,6.20
2018-04-29T11:25:16.668Z,7.00
2018-04-29T11:27:42.655Z,6.93
2018-04-29T11:30:08.612Z,6.50
2018-04-29T11:32:34.612Z,6.70
2018-04-29T11:35:01.505Z,6.73
2018-04-29T11:37:27.502Z,6.07
2018-04-29T11:39:53.463Z,6.47
2018-04-29T11:42:19.447Z,5.90
2018-04-29T11:44:46.147Z,6.43
2018-04-29T11:47:12.168Z,6.57
2018-04-29T11:49:38.124Z,6.23
2018-04-29T11:52:04.628Z,6.37
2018-04-29T11:54:31.362Z,6.80
2018-04-29T11:56:57.362Z,6.17
2018-04-29T11:59:23.347Z,6.70
2018-04-29T12:01:50.154Z,7.00
2018-04-29T12:04:16.866Z,7.20
2018-04-29T12:06:42.832Z,7.77
2018-04-29T12:09:08.819Z,7.03
2018-04-29T12:11:34.840Z,7.57
2018-04-29T12:14:01.576Z,7.77
2018-04-29T12:16:27.561Z,7.50
2018-04-29T12:18:54.329Z,8.40
2018-04-29T12:21:21.069Z,8.17
2018-04-29T12:23:47.751Z,9.60
2018-04-29T12:26:13.707Z,9.00
2018-04-29T12:28:39.695Z,9.10
2018-04-29T12:31:06.435Z,9.40
2018-04-29T12:33:32.459Z,8.70
2018-04-29T12:35:58.433Z,8.90
2018-04-29T12:38:25.140Z,8.93
2018-04-29T12:40:51.101Z,9.37
2018-04-29T12:43:17.137Z,8.10
2018-04-29T12:45:43.088Z,9.60
2018-04-29T12:48:09.803Z,9.77
2018-04-29T12:50:35.755Z,8.80
2018-04-29T12:53:01.773Z,9.47
2018-04-29T12:55:27.769Z,9.73
2018-04-29T12:57:53.774Z,10.40
2018-04-29T13:00:19.809Z,9.33
2018-04-29T13:02:46.626Z,11.00
2018-04-29T13:05:12.590Z,8.53
2018-04-29T13:07:38.591Z,9.20
2018-04-29T13:10:04.560Z,8.97
2018-04-29T13:12:30.544Z,9.67
2018-04-29T13:14:56.544Z,8.70
2018-04-29T13:17:22.512Z,10.50
2018-04-29T13:19:48.533Z,9.57
2018-04-29T13:22:15.255Z,10.20
2018-04-29T13:24:41.243Z,9.40
2018-04-29T13:27:07.206Z,9.53
2018-04-29T13:29:33.257Z,10.07
2018-04-29T13:31:59.907Z,11.13
2018-04-29T13:34:25.873Z,9.50
2018-04-29T13:36:52.595Z,10.00
2018-04-29T13:39:18.556Z,10.03
2018-04-29T13:41:45.899Z,9.10
2018-04-29T13:44:13.842Z,8.90
2018-04-29T13:46:39.856Z,9.77
2018-04-29T13:49:06.552Z,9.17
2018-04-29T13:51:32.545Z,9.20
2018-04-29T13:53:59.285Z,8.83
2018-04-29T13:56:25.260Z,9.40
2018-04-29T13:58:51.327Z,9.23
2018-04-29T14:01:17.984Z,8.80
2018-04-29T14:03:43.980Z,10.33
2018-04-29T14:06:09.973Z,9.57
2018-04-29T14:08:35.941Z,9.50
2018-04-29T14:11:01.929Z,9.83
2018-04-29T14:13:27.923Z,10.53
2018-04-29T14:15:53.918Z,10.40
2018-04-29T14:18:19.940Z,10.30
2018-04-29T14:20:45.931Z,9.97
2018-04-29T14:23:11.947Z,9.40
2018-04-29T14:25:38.672Z,9.67
2018-04-29T14:28:04.658Z,10.40
2018-04-29T14:30:30.676Z,9.60
2018-04-29T14:32:57.404Z,9.33
2018-04-29T14:35:24.128Z,9.33
2018-04-29T14:37:50.148Z,9.40
2018-04-29T14:40:16.108Z,8.73
2018-04-29T14:42:42.085Z,10.13
2018-04-29T14:45:08.820Z,9.67
2018-04-29T14:47:34.840Z,9.37
2018-04-29T14:50:00.940Z,9.97
2018-04-29T14:52:26.924Z,9.00
2018-04-29T14:54:52.907Z,8.93
2018-04-29T14:57:18.874Z,8.73
2018-04-29T14:59:44.924Z,9.93
2018-04-29T15:02:10.925Z,9.27
2018-04-29T15:04:37.007Z,10.10
2018-04-29T15:07:02.980Z,8.90
2018-04-29T15:09:29.613Z,9.47
2018-04-29T15:11:55.631Z,9.20
2018-04-29T15:14:26.388Z,10.33
2018-04-29T15:16:52.378Z,9.43
2018-04-29T15:19:18.397Z,9.83
2018-04-29T15:21:44.579Z,10.90
2018-04-29T15:24:11.239Z,9.90
2018-04-29T15:26:37.223Z,9.40
2018-04-29T15:29:03.217Z,9.90
2018-04-29T15:31:29.224Z,9.40
2018-04-29T15:33:55.191Z,9.30
2018-04-29T15:36:21.195Z,10.37
2018-04-29T15:38:48.076Z,10.50
2018-04-29T15:41:14.834Z,9.03
2018-04-29T15:43:40.895Z,9.50
2018-04-29T15:46:06.924Z,10.00
2018-04-29T15:48:32.904Z,9.30
2018-04-29T15:50:59.013Z,8.90
2018-04-29T15:53:24.987Z,9.60
2018-04-29T15:55:50.988Z,8.37
2018-04-29T15:58:16.975Z,9.47
2018-04-29T16:00:43.007Z,9.90
2018-04-29T16:03:10.049Z,8.70
2018-04-29T16:05:36.092Z,10.60
2018-04-29T16:08:03.145Z,9.00
2018-04-29T16:10:29.435Z,9.10
2018-04-29T16:12:57.254Z,9.90
2018-04-29T16:15:23.227Z,8.90
2018-04-29T16:17:49.279Z,8.33
2018-04-29T16:20:16.040Z,9.07
2018-04-29T16:22:42.033Z,10.23
2018-04-29T16:25:08.004Z,9.97
2018-04-29T16:27:34.064Z,10.63
2018-04-29T16:30:00.068Z,9.20
2018-04-29T16:32:26.517Z,10.10
2018-04-29T16:34:52.507Z,9.20
2018-04-29T16:37:18.529Z,9.33
2018-04-29T16:39:44.615Z,9.30
2018-04-29T16:42:10.647Z,9.93
2018-04-29T16:44:36.709Z,8.50
2018-04-29T16:47:03.471Z,9.93
2018-04-29T16:49:29.497Z,9.93
2018-04-29T16:51:56.291Z,9.30
2018-04-29T16:54:22.296Z,9.57
2018-04-29T16:56:49.047Z,8.37
2018-04-29T16:59:15.054Z,11.10
2018-04-29T17:01:41.056Z,9.90
2018-04-29T17:04:07.100Z,9.30
2018-04-29T17:06:33.082Z,10.13
2018-04-29T17:08:59.073Z,10.80
2018-04-29T17:11:25.117Z,10.30
2018-04-29T17:13:51.080Z,11.57
2018-04-29T17:16:17.812Z,11.17
2018-04-29T17:18:43.813Z,10.07
2018-04-29T17:21:09.788Z,10.43
2018-04-29T17:23:35.771Z,10.77
2018-04-29T17:26:01.796Z,9.67
2018-04-29T17:28:27.819Z,9.70
2018-04-29T17:30:53.798Z,8.87
2018-04-29T17:33:20.520Z,8.80
2018-04-29T17:35:46.499Z,8.80
2018-04-29T17:38:12.527Z,11.93
2018-04-29T17:40:38.455Z,9.17
2018-04-29T17:43:05.485Z,8.70
2018-04-29T17:45:32.560Z,8.20
2018-04-29T17:47:59.304Z,9.00
2018-04-29T17:50:25.316Z,9.13
2018-04-29T17:52:51.676Z,8.93
2018-04-29T17:55:18.472Z,10.40
2018-04-29T17:57:44.443Z,10.33
2018-04-29T18:00:10.505Z,9.40
2018-04-29T18:02:36.577Z,8.93
2018-04-29T18:05:02.623Z,9.07
2018-04-29T18:07:28.584Z,8.43
2018-04-29T18:09:54.539Z,8.70
2018-04-29T18:12:20.543Z,9.83
2018-04-29T18:14:46.521Z,9.20
2018-04-29T18:17:12.562Z,11.00
2018-04-29T18:19:38.588Z,7.90
2018-04-29T18:22:04.573Z,9.30
2018-04-29T18:24:30.598Z,9.07
2018-04-29T18:26:56.568Z,9.87
2018-04-29T18:29:23.984Z,8.60
2018-04-29T18:31:50.785Z,10.37
2018-04-29T18:34:16.763Z,10.47
2018-04-29T18:36:42.768Z,9.30
2018-04-29T18:39:08.721Z,11.20
2018-04-29T18:41:34.672Z,9.40
2018-04-29T18:44:01.394Z,10.17
2018-04-29T18:46:27.379Z,10.43
2018-04-29T18:48:53.372Z,11.40
2018-04-29T18:51:19.453Z,11.10
2018-04-29T18:53:46.128Z,11.80
2018-04-29T18:56:12.874Z,11.20
2018-04-29T18:58:39.593Z,11.00
2018-04-29T19:01:05.544Z,12.67
2018-04-29T19:03:31.538Z,11.53
2018-04-29T19:05:58.467Z,12.53
2018-04-29T19:08:25.263Z,11.60
2018-04-29T19:10:51.265Z,11.10
2018-04-29T19:13:17.219Z,10.50
2018-04-29T19:15:43.195Z,11.50
2018-04-29T19:18:09.196Z,12.20
2018-04-29T19:20:35.279Z,10.27
2018-04-29T19:23:01.277Z,10.83
2018-04-29T19:25:27.256Z,11.50
2018-04-29T19:27:53.268Z,10.63
2018-04-29T19:30:20.003Z,11.67
2018-04-29T19:32:46.752Z,12.00
2018-04-29T19:35:13.452Z,11.67
2018-04-29T19:37:39.439Z,12.20
2018-04-29T19:40:05.397Z,11.50
2018-04-29T19:42:32.635Z,12.40
2018-04-29T19:44:58.628Z,11.63
2018-04-29T19:47:24.632Z,12.10
2018-04-29T19:49:51.348Z,11.93
2018-04-29T19:52:17.320Z,12.80
2018-04-29T19:54:44.070Z,12.00
2018-04-29T19:57:10.781Z,12.37
2018-04-29T19:59:36.777Z,12.50
2018-04-29T20:02:03.489Z,13.20
2018-04-29T20:04:29.504Z,14.10
2018-04-29T20:06:55.471Z,12.43
2018-04-29T20:09:21.461Z,12.70
2018-04-29T20:11:48.475Z,13.83
2018-04-29T20:14:14.459Z,13.27
2018-04-29T20:16:40.423Z,13.60
2018-04-29T20:19:06.488Z,14.07
2018-04-29T20:21:32.496Z,12.60
2018-04-29T20:23:58.465Z,13.90
2018-04-29T20:26:25.156Z,12.80
2018-04-29T20:28:58.340Z,13.23
2018-04-29T20:31:25.096Z,13.57
2018-04-29T20:33:51.897Z,13.20
2018-04-29T20:36:17.905Z,14.77
2018-04-29T20:38:43.927Z,14.90
2018-04-29T20:41:09.973Z,14.70
2018-04-29T20:43:35.955Z,15.70
2018-04-29T20:46:03.431Z,15.80
2018-04-29T20:48:29.490Z,15.57
2018-04-29T20:50:55.398Z,15.00
2018-04-29T20:53:21.403Z,15.10
2018-04-29T20:55:47.419Z,16.97
2018-04-29T20:58:13.384Z,16.83
2018-04-29T21:00:39.370Z,16.23
2018-04-29T21:03:06.084Z,16.90
2018-04-29T21:05:32.069Z,17.70
2018-04-29T21:07:58.823Z,18.37
2018-04-29T21:10:24.816Z,15.30
2018-04-29T21:12:50.801Z,18.13
2018-04-29T21:15:16.761Z,16.17
2018-04-29T21:17:42.750Z,17.33
2018-04-29T21:20:09.466Z,17.93
2018-04-29T21:22:35.456Z,16.93
2018-04-29T21:25:02.221Z,17.23
2018-04-29T21:27:28.224Z,18.07
2018-04-29T21:29:54.189Z,18.30
2018-04-29T21:32:20.229Z,18.57
2018-04-29T21:34:46.208Z,18.50
2018-04-29T21:37:12.199Z,19.33
2018-04-29T21:39:38.156Z,19.03
2018-04-29T21:42:04.155Z,20.03
2018-04-29T21:44:30.888Z,19.90
2018-04-29T21:46:56.856Z,20.40
2018-04-29T21:49:23.582Z,20.27
2018-04-29T21:51:50.431Z,19.30
2018-04-29T21:54:16.397Z,20.87
2018-04-29T21:56:43.119Z,19.63
2018-04-29T21:59:09.084Z,17.93
2018-04-29T22:01:35.812Z,19.20
2018-04-29T22:04:01.795Z,20.00
2018-04-29T22:06:27.755Z,19.30
2018-04-29T22:08:53.760Z,19.00
2018-04-29T22:11:19.765Z,19.40
2018-04-29T22:13:46.480Z,21.10
2018-04-29T22:16:12.474Z,21.10
2018-04-29T22:18:39.183Z,20.20
2018-04-29T22:21:05.164Z,19.37
2018-04-29T22:23:31.896Z,20.00
2018-04-29T22:25:57.903Z,19.53
2018-04-29T22:28:23.888Z,19.37
2018-04-29T22:30:50.627Z,19.57
2018-04-29T22:33:17.367Z,20.10
2018-04-29T22:35:43.360Z,20.20
2018-04-29T22:38:09.320Z,19.33
2018-04-29T22:40:35.299Z,21.90
2018-04-29T22:43:02.023Z,18.77
2018-04-29T22:45:28.004Z,19.23
2018-04-29T22:47:53.972Z,21.10
2018-04-29T22:50:19.979Z,20.00
2018-04-29T22:52:45.919Z,18.03
2018-04-29T22:55:11.918Z,20.33
2018-04-29T22:57:37.935Z,18.27
2018-04-29T23:00:03.924Z,18.00
2018-04-29T23:02:29.904Z,19.37
2018-04-29T23:04:55.860Z,17.60
2018-04-29T23:07:21.852Z,19.63
2018-04-29T23:09:47.816Z,20.60
2018-04-29T23:12:13.798Z,21.50
2018-04-29T23:14:40.523Z,21.33
2018-04-29T23:17:07.918Z,20.07
2018-04-29T23:19:34.627Z,21.50
2018-04-29T23:22:00.589Z,20.50
2018-04-29T23:24:26.576Z,20.97
2018-04-29T23:26:52.563Z,22.10
2018-04-29T23:29:18.544Z,21.83
2018-04-29T23:31:44.507Z,19.30
2018-04-29T23:34:10.496Z,21.10
2018-04-29T23:36:36.520Z,20.60
2018-04-29T23:39:03.223Z,20.50
2018-04-29T23:41:29.204Z,22.20
2018-04-29T23:43:55.932Z,23.80
2018-04-29T23:46:21.899Z,21.33
2018-04-29T23:48:48.643Z,22.93
2018-04-29T23:51:15.392Z,21.27
2018-04-29T23:53:41.387Z,21.67
2018-04-29T23:56:07.390Z,20.03
2018-04-29T23:58:34.116Z,21.53
